Kermit, West Virginia
Current Conditions -  °F | °C
As of 12:15 PM on Saturday 20 Dec 2014 (Local Time) from KSJS Reporting Station
Overcast Overcast  
Wind Chill: 33°   Ceiling: 4200
Heat Index: 33°   Visibility: 10mi
Dew Point: 27°   Wind: 0mph
Humidity: 77%   Direction: NA
Pressure: 30.22"   Gusts: NA
Location:  37.84°N, 82.41°W
Report Text: KSJS 201715Z AUTO 00000KT 10SM BKN042 BKN060 OVC075 01/M03 A3022 RMK AO2 T00071029
Loading
Personal Weather Stations






























Interactive Weather Map New forecast layout! Learn more

10-Day Weather Forecast

Advertisements
Track Severe Weather on mobile